モンテレー の空港の天気 - METARとTAF

ヘネラル・マリアノ・エソコベド国際空港 ( MMMY / MTY ) - メキシコ ヌエボ・レオン州モンテレー
飛行場実況気象(Metar)
観測時間04/21 11:40 CDT (04/21 16:40 UTC)
風向・風速東 3m/s
視程10km以上
天気現象
全天の4割程度の雲 雲底高度 6100m
気温25℃
湿度57%
気圧1014hPa
METARMMMY 211640Z 10006KT 12SM SCT200 25/16 A2994 RMK 8/008
過去の天気等 Google飛行場航空写真 Wunderground天気予報

過去48時間のMETAR

飛行場予報(TAF)
発表時間: 4/21 06:25 CDT (4/21 11:25 UTC)
予報対象時間: 21日7時 CDT ~ 22日13時 CDT
風向・風速東 3m/s
視程10km以上
全天の4割程度の雲 雲底高度 7620m
21日11時 CDT から
風向・風速東南東 5m/s
視程10km以上
全天の4割程度の雲 雲底高度 7620m
21日21時 CDT から
風向・風速南東 3m/s
視程10km以上
全天の8割程度の雲 雲底高度 7620m
22日5時 CDT ~ 22日9時 CDT に一時的に
視程4830m
天気現象もや
全天の8割程度の雲 雲底高度 370m
22日11時 CDT から
風向・風速南東 5m/s
視程10km以上
全天の4割程度の雲 雲底高度 610m
全天の8割程度の雲 雲底高度 7620m
TAF MMMY 211125Z 2112/2218 08005KT P6SM SCT250 TX34/2121Z TN15/2112Z
FM211600 12010KT P6SM SCT250
FM220200 13005KT P6SM BKN250
TEMPO 2210/2214 3SM BR BKN012
FM221600 13010KT P6SM SCT020 BKN250